createdAt,value
2022-09-16T00:01:16.381Z,11.77
2022-09-16T00:03:45.384Z,8.63
2022-09-16T00:06:23.236Z,10.95
2022-09-16T00:08:52.171Z,15.15
2022-09-16T00:11:20.278Z,9.23
2022-09-16T00:13:48.951Z,7.55
2022-09-16T00:16:20.626Z,7.85
2022-09-16T00:18:49.641Z,8.07
2022-09-16T00:21:17.823Z,8.25
2022-09-16T00:23:46.013Z,9.68
2022-09-16T00:26:14.318Z,11.15
2022-09-16T00:28:43.126Z,8.60
2022-09-16T00:31:11.297Z,9.35
2022-09-16T00:33:39.639Z,9.23
2022-09-16T00:36:12.266Z,8.65
2022-09-16T00:38:40.905Z,8.30
2022-09-16T00:41:13.521Z,7.60
2022-09-16T00:43:58.256Z,7.60
2022-09-16T00:46:32.788Z,7.85
2022-09-16T00:49:13.634Z,7.60
2022-09-16T00:51:43.258Z,7.45
2022-09-16T00:54:12.831Z,7.45
2022-09-16T00:56:47.624Z,7.40
2022-09-16T00:59:24.878Z,7.95
2022-09-16T01:01:56.247Z,7.85
2022-09-16T01:04:29.242Z,9.30
2022-09-16T01:06:58.170Z,8.27
2022-09-16T01:09:27.340Z,8.63
2022-09-16T01:11:55.718Z,8.00
2022-09-16T01:14:26.203Z,10.07
2022-09-16T01:17:17.510Z,8.57
2022-09-16T01:20:18.908Z,11.80
2022-09-16T01:23:20.871Z,14.13
2022-09-16T01:26:10.823Z,12.25
2022-09-16T01:29:05.720Z,12.63
2022-09-16T01:31:33.929Z,16.70
2022-09-16T01:34:20.617Z,11.57
2022-09-16T01:36:55.048Z,9.70
2022-09-16T01:39:29.117Z,9.35
2022-09-16T01:42:00.426Z,9.93
2022-09-16T01:48:21.433Z,9.55
2022-09-16T01:51:01.079Z,9.25
2022-09-16T01:53:37.014Z,7.53
2022-09-16T01:56:15.873Z,8.07
2022-09-16T01:58:52.729Z,8.98
2022-09-16T02:01:35.456Z,13.02
2022-09-16T02:04:09.809Z,11.73
2022-09-16T02:06:40.156Z,10.10
2022-09-16T02:09:25.150Z,10.02
2022-09-16T02:11:56.895Z,4.90
2022-09-16T02:14:31.714Z,4.45
2022-09-16T02:17:09.635Z,3.92
2022-09-16T02:20:08.960Z,4.20
2022-09-16T02:22:47.340Z,3.42
2022-09-16T02:25:18.452Z,3.00
2022-09-16T02:27:48.919Z,3.00
2022-09-16T02:30:21.100Z,3.03
2022-09-16T02:35:27.654Z,4.05
2022-09-16T02:38:07.576Z,3.67
2022-09-16T02:40:41.393Z,3.83
2022-09-16T02:43:09.534Z,4.28
2022-09-16T02:46:00.583Z,4.55
2022-09-16T02:48:36.720Z,3.08
2022-09-16T02:51:33.278Z,2.95
2022-09-16T02:54:16.555Z,3.75
2022-09-16T02:56:45.006Z,3.65
2022-09-16T02:59:14.464Z,4.25
2022-09-16T03:01:45.673Z,4.10
2022-09-16T03:04:16.750Z,3.72
2022-09-16T03:06:45.810Z,4.18
2022-09-16T03:09:16.059Z,3.47
2022-09-16T03:12:08.769Z,4.10
2022-09-16T03:14:42.899Z,3.58
2022-09-16T03:17:27.049Z,3.00
2022-09-16T03:20:04.299Z,3.55
2022-09-16T03:22:53.926Z,2.90
2022-09-16T03:25:40.595Z,2.90
2022-09-16T03:28:27.927Z,3.20
2022-09-16T03:31:02.098Z,3.38
2022-09-16T03:33:51.685Z,3.05
2022-09-16T03:36:25.691Z,3.05
2022-09-16T03:38:55.659Z,3.03
2022-09-16T03:41:24.629Z,2.97
2022-09-16T03:44:00.321Z,3.33
2022-09-16T03:46:32.008Z,3.25
2022-09-16T03:49:00.603Z,3.42
2022-09-16T03:51:28.665Z,3.20
2022-09-16T03:53:56.843Z,4.22
2022-09-16T03:56:25.800Z,4.13
2022-09-16T03:58:53.863Z,4.43
2022-09-16T04:01:22.218Z,4.63
2022-09-16T04:03:50.395Z,4.22
2022-09-16T04:06:18.528Z,5.15
2022-09-16T04:08:46.798Z,6.30
2022-09-16T04:11:14.934Z,6.05
2022-09-16T04:13:43.104Z,5.55
2022-09-16T04:16:11.414Z,5.50
2022-09-16T04:18:39.702Z,4.53
2022-09-16T04:21:07.731Z,4.30
2022-09-16T04:23:35.987Z,3.72
2022-09-16T04:26:04.369Z,3.22
2022-09-16T04:28:35.296Z,3.35
2022-09-16T04:31:05.335Z,3.20
2022-09-16T04:33:35.396Z,3.60
2022-09-16T04:36:08.769Z,3.60
2022-09-16T04:38:37.672Z,4.38
2022-09-16T04:41:14.799Z,5.93
2022-09-16T04:43:43.103Z,5.43
2022-09-16T04:46:11.872Z,4.60
2022-09-16T04:48:40.545Z,3.58
2022-09-16T04:51:11.454Z,3.60
2022-09-16T04:53:41.667Z,4.63
2022-09-16T04:56:13.642Z,5.68
2022-09-16T04:58:42.604Z,4.40
2022-09-16T05:01:13.212Z,5.32
2022-09-16T05:03:45.810Z,5.93
2022-09-16T05:06:21.020Z,6.40
2022-09-16T05:08:50.673Z,6.50
2022-09-16T05:11:22.157Z,5.43
2022-09-16T05:13:50.293Z,6.65
2022-09-16T05:16:24.978Z,5.85
2022-09-16T05:18:56.605Z,6.50
2022-09-16T05:21:26.963Z,5.38
2022-09-16T05:23:56.049Z,4.97
2022-09-16T05:26:27.167Z,5.05
2022-09-16T05:28:55.652Z,6.45
2022-09-16T05:31:26.218Z,13.13
2022-09-16T05:33:57.929Z,8.65
2022-09-16T05:36:28.133Z,6.97
2022-09-16T05:39:20.933Z,7.43
2022-09-16T05:41:45.430Z,7.35
2022-09-16T05:44:13.883Z,8.10
2022-09-16T05:46:42.712Z,9.20
2022-09-16T05:49:11.451Z,9.90
2022-09-16T05:51:40.880Z,9.38
2022-09-16T05:54:09.389Z,9.43
2022-09-16T05:56:37.683Z,10.07
2022-09-16T05:59:06.487Z,8.90
2022-09-16T06:01:36.391Z,9.70
2022-09-16T06:04:07.618Z,12.65
2022-09-16T06:06:44.049Z,12.55
2022-09-16T06:09:23.889Z,10.00
2022-09-16T06:11:57.990Z,13.50
2022-09-16T06:14:29.891Z,13.90
2022-09-16T06:16:58.311Z,11.85
2022-09-16T06:19:26.353Z,10.32
2022-09-16T06:21:54.506Z,11.07
2022-09-16T06:24:22.916Z,12.48
2022-09-16T06:26:51.129Z,9.55
2022-09-16T06:29:19.278Z,9.43
2022-09-16T06:31:47.449Z,9.85
2022-09-16T06:34:17.637Z,9.10
2022-09-16T06:36:46.177Z,8.82
2022-09-16T06:39:16.161Z,8.57
2022-09-16T06:41:44.803Z,8.18
2022-09-16T06:44:12.835Z,9.23
2022-09-16T06:46:41.038Z,10.07
2022-09-16T06:49:09.427Z,9.82
2022-09-16T06:51:37.533Z,10.25
2022-09-16T06:54:07.754Z,10.65
2022-09-16T06:56:36.437Z,10.18
2022-09-16T06:59:05.910Z,11.35
2022-09-16T07:01:34.942Z,12.15
2022-09-16T07:04:06.038Z,13.52
2022-09-16T07:09:23.564Z,12.23
2022-09-16T07:11:51.917Z,13.00
2022-09-16T07:14:20.228Z,11.93
2022-09-16T07:16:48.455Z,13.85
2022-09-16T07:19:16.640Z,14.02
2022-09-16T07:21:45.980Z,12.73
2022-09-16T07:24:15.373Z,12.55
2022-09-16T07:26:44.452Z,10.05
2022-09-16T07:29:18.530Z,10.75
2022-09-16T07:31:46.963Z,10.35
2022-09-16T07:34:15.818Z,10.63
2022-09-16T07:36:46.847Z,10.30
2022-09-16T07:39:16.636Z,10.88
2022-09-16T07:41:46.541Z,9.85
2022-09-16T07:44:16.367Z,10.07
2022-09-16T07:46:45.152Z,9.07
2022-09-16T07:49:15.332Z,10.82
2022-09-16T07:51:44.486Z,7.80
2022-09-16T07:54:15.318Z,9.93
2022-09-16T07:56:44.969Z,14.27
2022-09-16T07:59:18.851Z,32.08
2022-09-16T08:01:49.364Z,41.60
2022-09-16T08:04:19.081Z,19.77
2022-09-16T08:06:47.206Z,12.27
2022-09-16T08:12:05.799Z,15.52
2022-09-16T08:14:34.416Z,10.93
2022-09-16T08:17:02.578Z,8.55
2022-09-16T08:19:30.866Z,9.80
2022-09-16T08:21:59.032Z,8.07
2022-09-16T08:24:27.450Z,7.82
2022-09-16T08:29:24.698Z,7.78
2022-09-16T08:31:53.079Z,8.27
2022-09-16T08:34:21.386Z,9.15
2022-09-16T08:36:49.523Z,9.95
2022-09-16T08:39:17.643Z,8.73
2022-09-16T08:41:59.138Z,8.60
2022-09-16T08:44:50.271Z,8.87
2022-09-16T08:47:39.875Z,8.38
2022-09-16T08:50:17.027Z,10.82
2022-09-16T08:52:47.443Z,15.88
2022-09-16T08:55:24.976Z,26.08
2022-09-16T08:58:05.020Z,24.02
2022-09-16T09:00:34.018Z,19.40
2022-09-16T09:03:28.347Z,17.08
2022-09-16T09:05:58.600Z,16.48
2022-09-16T09:08:45.032Z,14.18
2022-09-16T09:11:32.442Z,13.32
2022-09-16T09:14:27.493Z,13.23
2022-09-16T09:17:23.065Z,12.95
2022-09-16T09:20:24.396Z,13.80
2022-09-16T09:23:12.807Z,13.30
2022-09-16T09:26:02.624Z,13.70
2022-09-16T09:29:07.444Z,12.55
2022-09-16T09:31:54.023Z,11.88
2022-09-16T09:34:25.412Z,10.70
2022-09-16T09:37:18.263Z,10.30
2022-09-16T09:40:24.845Z,9.80
2022-09-16T09:43:17.522Z,9.25
2022-09-16T09:46:00.954Z,9.63
2022-09-16T09:48:49.864Z,9.50
2022-09-16T09:51:27.180Z,10.85
2022-09-16T09:54:02.730Z,10.27
2022-09-16T09:56:42.456Z,10.15
2022-09-16T09:59:25.869Z,9.90
2022-09-16T10:01:58.537Z,9.32
2022-09-16T10:04:28.183Z,10.35
2022-09-16T10:06:59.238Z,11.00
2022-09-16T10:09:27.614Z,10.55
2022-09-16T10:11:56.873Z,10.30
2022-09-16T10:14:33.516Z,10.50
2022-09-16T10:17:04.612Z,5.45
2022-09-16T10:19:41.525Z,4.25
2022-09-16T10:22:11.081Z,4.85
2022-09-16T10:24:41.766Z,4.68
2022-09-16T10:27:30.551Z,3.33
2022-09-16T10:30:14.395Z,3.53
2022-09-16T10:33:07.549Z,3.50
2022-09-16T10:35:38.486Z,3.30
2022-09-16T10:38:21.660Z,2.95
2022-09-16T10:41:06.820Z,2.90
2022-09-16T10:43:37.332Z,2.80
2022-09-16T10:46:06.936Z,3.25
2022-09-16T10:48:36.371Z,3.20
2022-09-16T10:51:22.982Z,3.00
2022-09-16T10:54:01.122Z,3.10
2022-09-16T10:56:47.902Z,3.53
2022-09-16T10:59:16.485Z,3.78
2022-09-16T11:02:06.299Z,5.43
2022-09-16T11:04:42.344Z,5.30
2022-09-16T11:07:33.508Z,8.38
2022-09-16T11:10:23.331Z,7.10
2022-09-16T11:13:08.336Z,6.47
2022-09-16T11:16:01.320Z,6.55
2022-09-16T11:18:50.691Z,5.28
2022-09-16T11:21:28.437Z,4.88
2022-09-16T11:24:15.139Z,4.57
2022-09-16T11:27:12.159Z,6.18
2022-09-16T11:29:55.768Z,7.45
2022-09-16T11:33:02.744Z,8.93
2022-09-16T11:35:46.747Z,9.93
2022-09-16T11:38:35.736Z,7.57
2022-09-16T11:41:21.814Z,8.00
2022-09-16T11:44:16.143Z,6.68
2022-09-16T11:46:47.408Z,7.72
2022-09-16T11:49:35.806Z,7.67
2022-09-16T11:52:19.243Z,8.18
2022-09-16T11:55:16.549Z,9.25
2022-09-16T11:57:51.001Z,7.05
2022-09-16T12:00:20.151Z,7.45
2022-09-16T12:03:17.533Z,6.80
2022-09-16T12:05:48.395Z,6.65
2022-09-16T12:08:26.416Z,6.43
2022-09-16T12:10:57.637Z,8.63
2022-09-16T12:13:43.414Z,12.23
2022-09-16T12:16:35.116Z,12.85
2022-09-16T12:19:12.529Z,23.50
2022-09-16T12:21:57.840Z,22.35
2022-09-16T12:24:31.605Z,12.02
2022-09-16T12:27:33.021Z,10.65
2022-09-16T12:30:17.195Z,13.27
2022-09-16T12:33:09.922Z,6.90
2022-09-16T12:35:45.340Z,8.73
2022-09-16T12:38:21.615Z,7.00
2022-09-16T12:41:08.302Z,8.52
2022-09-16T12:44:16.985Z,8.00
2022-09-16T12:47:13.221Z,7.85
2022-09-16T12:49:59.846Z,7.32
2022-09-16T12:52:43.385Z,6.85
2022-09-16T12:55:42.159Z,6.28
2022-09-16T12:58:45.919Z,6.43
2022-09-16T13:01:20.243Z,6.15
2022-09-16T13:03:58.090Z,6.13
2022-09-16T13:06:33.937Z,4.72
2022-09-16T13:09:38.946Z,5.63
2022-09-16T13:12:39.225Z,6.38
2022-09-16T13:15:22.939Z,5.35
2022-09-16T13:17:51.275Z,13.00
2022-09-16T13:20:28.519Z,9.73
2022-09-16T13:22:56.780Z,6.60
2022-09-16T13:25:29.716Z,5.53
2022-09-16T13:28:00.988Z,5.90
2022-09-16T13:30:34.454Z,4.90
2022-09-16T13:33:28.716Z,5.85
2022-09-16T13:36:22.135Z,5.70
2022-09-16T13:38:56.084Z,4.80
2022-09-16T13:41:50.808Z,5.65
2022-09-16T13:44:37.543Z,4.68
2022-09-16T13:47:12.383Z,4.97
2022-09-16T13:50:05.779Z,4.22
2022-09-16T13:52:36.883Z,5.30
2022-09-16T13:55:10.841Z,4.80
2022-09-16T13:57:51.369Z,6.05
2022-09-16T14:00:44.658Z,4.90
2022-09-16T14:03:23.829Z,5.47
2022-09-16T14:05:58.284Z,5.38
2022-09-16T14:08:39.900Z,4.82
2022-09-16T14:11:32.004Z,4.50
2022-09-16T14:17:01.509Z,6.40
2022-09-16T14:19:34.578Z,5.60
2022-09-16T14:22:18.422Z,6.03
2022-09-16T14:24:52.945Z,5.72
2022-09-16T14:27:35.426Z,8.02
2022-09-16T14:30:18.148Z,6.25
2022-09-16T14:32:49.874Z,6.60
2022-09-16T14:35:25.035Z,7.70
2022-09-16T14:38:00.957Z,9.65
2022-09-16T14:40:30.170Z,8.10
2022-09-16T14:43:09.953Z,7.60
2022-09-16T14:45:40.307Z,8.75
2022-09-16T14:48:11.537Z,7.20
2022-09-16T14:50:44.033Z,6.82
2022-09-16T14:53:38.576Z,7.95
2022-09-16T14:56:18.797Z,7.75
2022-09-16T14:58:48.757Z,7.90
2022-09-16T15:01:36.894Z,11.75
2022-09-16T15:04:13.158Z,12.32
2022-09-16T15:06:48.755Z,15.43
2022-09-16T15:09:22.644Z,8.07
2022-09-16T15:12:19.496Z,5.28
2022-09-16T15:14:48.617Z,6.22
2022-09-16T15:17:20.843Z,5.30
2022-09-16T15:22:22.690Z,6.00
2022-09-16T15:24:58.946Z,6.75
2022-09-16T15:27:31.140Z,6.18
2022-09-16T15:30:01.935Z,6.50
2022-09-16T15:32:30.897Z,5.88
2022-09-16T15:35:20.703Z,6.70
2022-09-16T15:37:52.653Z,7.13
2022-09-16T15:40:27.094Z,6.72
2022-09-16T15:43:40.383Z,4.75
2022-09-16T15:46:22.916Z,7.15
2022-09-16T15:49:00.749Z,4.13
2022-09-16T15:51:46.196Z,4.50
2022-09-16T15:54:29.633Z,5.13
2022-09-16T15:57:38.954Z,5.05
2022-09-16T16:00:13.111Z,5.15
2022-09-16T16:03:00.769Z,5.03
2022-09-16T16:05:31.360Z,4.82
2022-09-16T16:08:09.569Z,4.50
2022-09-16T16:10:38.335Z,4.18
2022-09-16T16:13:06.765Z,4.75
2022-09-16T16:15:38.053Z,3.75
2022-09-16T16:18:09.285Z,4.15
2022-09-16T16:20:38.448Z,4.90
2022-09-16T16:23:06.663Z,4.80
2022-09-16T16:25:34.877Z,4.72
2022-09-16T16:28:03.361Z,3.85
2022-09-16T16:30:31.721Z,4.35
2022-09-16T16:32:59.977Z,4.40
2022-09-16T16:35:28.048Z,4.38
2022-09-16T16:37:56.379Z,4.32
2022-09-16T16:40:24.616Z,4.93
2022-09-16T16:42:52.773Z,5.85
2022-09-16T16:45:20.914Z,4.70
2022-09-16T16:47:49.151Z,5.35
2022-09-16T16:50:17.515Z,5.90
2022-09-16T16:52:45.839Z,6.18
2022-09-16T16:55:13.913Z,10.82
2022-09-16T16:57:42.089Z,20.42
2022-09-16T17:00:10.972Z,11.38
2022-09-16T17:02:39.229Z,10.93
2022-09-16T17:05:08.037Z,6.43
2022-09-16T17:07:36.327Z,5.70
2022-09-16T17:10:04.475Z,3.63
2022-09-16T17:12:32.847Z,4.65
2022-09-16T17:15:00.983Z,4.63
2022-09-16T17:17:31.857Z,10.65
2022-09-16T17:20:00.361Z,13.27
2022-09-16T17:22:28.526Z,6.78
2022-09-16T17:24:56.750Z,10.82
2022-09-16T17:27:25.428Z,13.90
2022-09-16T17:29:54.044Z,7.40
2022-09-16T17:32:22.400Z,10.38
2022-09-16T17:34:50.486Z,10.15
2022-09-16T17:37:18.681Z,7.32
2022-09-16T17:39:46.955Z,10.35
2022-09-16T17:42:15.131Z,5.53
2022-09-16T17:44:43.207Z,8.23
2022-09-16T17:47:11.574Z,5.90
2022-09-16T17:49:39.664Z,4.47
2022-09-16T17:52:08.018Z,6.38
2022-09-16T17:54:36.301Z,6.20
2022-09-16T17:57:04.589Z,5.22
2022-09-16T17:59:32.771Z,6.43
2022-09-16T18:02:00.997Z,5.70
2022-09-16T18:04:29.179Z,4.60
2022-09-16T18:06:57.473Z,4.75
2022-09-16T18:09:25.571Z,5.03
2022-09-16T18:11:53.949Z,5.63
2022-09-16T18:14:23.603Z,4.47
2022-09-16T18:16:52.069Z,4.25
2022-09-16T18:19:20.395Z,4.10
2022-09-16T18:21:48.693Z,4.13
2022-09-16T18:24:17.209Z,4.38
2022-09-16T18:26:45.684Z,5.07
2022-09-16T18:29:14.634Z,5.97
2022-09-16T18:31:47.954Z,5.72
2022-09-16T18:34:17.447Z,5.25
2022-09-16T18:36:45.526Z,6.53
2022-09-16T18:39:17.659Z,5.78
2022-09-16T18:44:20.322Z,6.00
2022-09-16T18:46:49.035Z,7.05
2022-09-16T18:49:19.052Z,8.13
2022-09-16T18:51:51.942Z,6.80
2022-09-16T18:54:26.415Z,7.82
2022-09-16T18:56:58.899Z,9.07
2022-09-16T18:59:33.359Z,15.02
2022-09-16T19:02:02.946Z,10.52
2022-09-16T19:04:37.923Z,7.63
2022-09-16T19:07:07.940Z,8.45
2022-09-16T19:09:38.537Z,12.52
2022-09-16T19:12:11.486Z,14.48
2022-09-16T19:14:40.287Z,14.65
2022-09-16T19:17:08.799Z,8.85
2022-09-16T19:19:37.316Z,9.13
2022-09-16T19:22:06.263Z,7.63
2022-09-16T19:24:34.633Z,7.10
2022-09-16T19:27:02.963Z,10.43
2022-09-16T19:29:31.192Z,12.13
2022-09-16T19:31:59.262Z,9.82
2022-09-16T19:34:27.626Z,9.57
2022-09-16T19:36:58.863Z,15.77
2022-09-16T19:39:27.454Z,13.23
2022-09-16T19:41:55.856Z,13.07
2022-09-16T19:44:24.067Z,8.45
2022-09-16T19:46:52.310Z,9.27
2022-09-16T19:49:22.160Z,8.57
2022-09-16T19:51:51.593Z,9.75
2022-09-16T19:54:20.328Z,7.25
2022-09-16T19:56:50.914Z,6.53
2022-09-16T19:59:20.320Z,6.90
2022-09-16T20:01:48.665Z,7.30
2022-09-16T20:04:17.492Z,7.47
2022-09-16T20:06:45.605Z,8.35
2022-09-16T20:09:14.195Z,7.30
2022-09-16T20:11:45.256Z,7.90
2022-09-16T20:14:17.209Z,8.05
2022-09-16T20:16:45.580Z,8.25
2022-09-16T20:19:16.000Z,9.00
2022-09-16T20:21:44.709Z,11.15
2022-09-16T20:24:17.765Z,11.82
2022-09-16T20:26:46.772Z,13.93
2022-09-16T20:29:15.177Z,41.78
2022-09-16T20:31:43.791Z,21.58
2022-09-16T20:34:12.870Z,17.02
2022-09-16T20:36:41.457Z,19.38
2022-09-16T20:39:11.458Z,18.50
2022-09-16T20:41:40.771Z,27.08
2022-09-16T20:44:15.670Z,37.78
2022-09-16T20:46:44.701Z,33.80
2022-09-16T20:49:16.370Z,22.15
2022-09-16T20:51:45.187Z,11.80
2022-09-16T20:54:15.914Z,10.23
2022-09-16T20:56:46.700Z,9.65
2022-09-16T20:59:16.836Z,9.20
2022-09-16T21:01:45.548Z,9.77
2022-09-16T21:04:16.374Z,8.85
2022-09-16T21:06:45.113Z,8.35
2022-09-16T21:09:15.671Z,8.68
2022-09-16T21:11:44.163Z,9.48
2022-09-16T21:14:14.035Z,9.85
2022-09-16T21:16:43.295Z,9.30
2022-09-16T21:19:12.293Z,9.80
2022-09-16T21:21:42.658Z,10.50
2022-09-16T21:24:11.026Z,8.93
2022-09-16T21:26:39.977Z,9.57
2022-09-16T21:29:18.817Z,9.93
2022-09-16T21:31:47.571Z,10.88
2022-09-16T21:34:20.871Z,10.10
2022-09-16T21:36:50.685Z,10.65
2022-09-16T21:39:20.751Z,10.43
2022-09-16T21:41:49.472Z,9.13
2022-09-16T21:44:18.173Z,8.57
2022-09-16T21:46:47.532Z,9.57
2022-09-16T21:49:21.102Z,8.75
2022-09-16T21:51:50.467Z,9.73
2022-09-16T21:54:20.391Z,9.23
2022-09-16T21:56:50.074Z,11.60
2022-09-16T21:59:19.472Z,12.57
2022-09-16T22:01:48.220Z,12.50
2022-09-16T22:04:19.350Z,11.25
2022-09-16T22:06:47.660Z,10.88
2022-09-16T22:09:16.387Z,10.85
2022-09-16T22:11:44.666Z,11.85
2022-09-16T22:14:13.101Z,11.13
2022-09-16T22:16:41.674Z,12.10
2022-09-16T22:19:15.630Z,18.13
2022-09-16T22:21:46.063Z,20.02
2022-09-16T22:24:15.423Z,12.25
2022-09-16T22:26:43.837Z,16.70
2022-09-16T22:29:13.210Z,34.22
2022-09-16T22:31:42.311Z,23.42
2022-09-16T22:34:10.763Z,17.90
2022-09-16T22:36:39.774Z,38.33
2022-09-16T22:39:13.448Z,39.38
2022-09-16T22:41:41.956Z,26.38
2022-09-16T22:44:10.556Z,34.13
2022-09-16T22:46:47.263Z,74.47
2022-09-16T22:49:16.610Z,70.90
2022-09-16T22:51:44.958Z,65.32
2022-09-16T22:54:14.210Z,27.98
2022-09-16T22:56:43.763Z,26.88
2022-09-16T22:59:19.146Z,44.50
2022-09-16T23:01:48.441Z,18.63
2022-09-16T23:04:16.988Z,17.35
2022-09-16T23:06:45.380Z,12.35
2022-09-16T23:09:14.183Z,10.90
2022-09-16T23:11:42.373Z,20.90
2022-09-16T23:14:15.013Z,32.38
2022-09-16T23:16:43.190Z,107.80
2022-09-16T23:19:12.500Z,25.83
2022-09-16T23:21:41.392Z,39.33
2022-09-16T23:24:15.697Z,19.23
2022-09-16T23:26:44.263Z,21.70
2022-09-16T23:29:13.894Z,10.43
2022-09-16T23:31:44.069Z,9.73
2022-09-16T23:34:18.958Z,11.00
2022-09-16T23:36:47.687Z,10.23
2022-09-16T23:39:17.654Z,9.43
2022-09-16T23:41:46.720Z,9.23
2022-09-16T23:44:16.176Z,8.32
2022-09-16T23:46:44.816Z,7.97
2022-09-16T23:49:13.442Z,7.70
2022-09-16T23:51:41.703Z,8.30
2022-09-16T23:54:10.012Z,9.60
2022-09-16T23:56:38.228Z,10.25
2022-09-16T23:59:06.452Z,10.32
